Time;durP1;ratioP1;P1;durP2;ratioP2;P2;SDS_P1;SDS_P2;PMS_P1;PMS_P2;Temp;Humidity;BMP_temperature;BMP_pressure;BME280_temperature;BME280_humidity;BME280_pressure;Samples;Min_cycle;Max_cycle;Signal;HPM_P1;HPM_P2
2023/12/08 00:02:07;;;;;;;5.63;4.50;;;2.60;99.90;;;;;;5070762;28;20679;-72
2023/12/08 00:04:33;;;;;;;7.90;3.90;;;2.60;99.90;;;;;;5072575;28;20179;-72
2023/12/08 00:06:59;;;;;;;4.13;3.73;;;2.60;99.90;;;;;;5070986;28;20213;-72
2023/12/08 00:09:24;;;;;;;4.50;3.90;;;2.70;99.90;;;;;;5071133;28;20198;-71
2023/12/08 00:11:50;;;;;;;6.00;4.00;;;2.70;99.90;;;;;;5071375;28;20196;-72
2023/12/08 00:14:15;;;;;;;5.17;4.67;;;2.70;99.90;;;;;;5072582;28;20189;-72
2023/12/08 00:16:41;;;;;;;4.70;4.03;;;2.70;99.90;;;;;;5072648;28;20688;-72
2023/12/08 00:19:08;;;;;;;5.73;4.77;;;2.60;99.90;;;;;;5072116;28;20634;-72
2023/12/08 00:21:34;;;;;;;5.30;3.60;;;2.60;99.90;;;;;;5070251;28;20642;-72
2023/12/08 00:23:59;;;;;;;4.87;4.20;;;2.60;99.90;;;;;;5070054;28;20519;-72
2023/12/08 00:26:25;;;;;;;7.50;4.10;;;2.60;99.90;;;;;;5071447;28;20261;-72
2023/12/08 00:28:50;;;;;;;4.90;3.77;;;2.60;99.90;;;;;;5070092;28;20189;-72
2023/12/08 00:31:16;;;;;;;5.73;3.87;;;2.70;99.90;;;;;;5072063;28;20199;-72
2023/12/08 00:33:43;;;;;;;4.67;3.60;;;2.70;99.90;;;;;;5070101;28;20190;-72
2023/12/08 00:36:16;;;;;;;5.75;4.45;;;2.70;99.90;;;;;;5071441;28;20215;-72
2023/12/08 00:38:42;;;;;;;4.78;3.63;;;2.70;99.90;;;;;;5071418;28;20208;-72
2023/12/08 00:41:09;;;;;;;6.60;3.97;;;2.80;99.90;;;;;;5071240;28;20268;-72
2023/12/08 00:43:35;;;;;;;5.18;3.55;;;2.80;99.90;;;;;;5071254;28;20181;-72
2023/12/08 00:46:01;;;;;;;5.13;3.58;;;2.80;99.90;;;;;;5071106;28;20212;-73
2023/12/08 00:48:26;;;;;;;5.53;4.10;;;2.90;99.90;;;;;;5071345;28;20189;-72
2023/12/08 00:50:52;;;;;;;5.27;4.30;;;2.80;99.90;;;;;;5071090;28;20193;-72
2023/12/08 00:53:18;;;;;;;3.63;3.23;;;2.70;99.90;;;;;;5069765;28;20741;-72
2023/12/08 00:55:44;;;;;;;5.73;3.93;;;2.70;99.90;;;;;;5069535;28;20289;-71
2023/12/08 00:58:11;;;;;;;4.83;3.63;;;2.80;99.90;;;;;;5071392;28;20429;-71
2023/12/08 01:00:37;;;;;;;3.58;3.25;;;2.80;99.90;;;;;;5070980;28;20551;-72
2023/12/08 01:03:02;;;;;;;5.20;4.40;;;2.80;99.90;;;;;;5069484;28;20213;-72
2023/12/08 01:05:28;;;;;;;5.03;3.57;;;2.80;99.90;;;;;;5069411;28;20252;-72
2023/12/08 01:07:54;;;;;;;5.17;3.90;;;2.90;99.90;;;;;;5071160;28;20669;-72
2023/12/08 01:10:20;;;;;;;6.83;3.93;;;2.90;99.90;;;;;;5052956;28;20518;-72
2023/12/08 01:12:46;;;;;;;3.22;2.83;;;3.00;99.90;;;;;;5071351;28;20174;-73
2023/12/08 01:15:12;;;;;;;6.27;3.50;;;2.90;99.90;;;;;;5070950;28;20242;-72
2023/12/08 01:17:37;;;;;;;4.90;3.23;;;3.00;99.90;;;;;;5070809;28;20571;-72
2023/12/08 01:20:05;;;;;;;4.17;3.70;;;3.10;99.90;;;;;;5070600;28;20204;-72
2023/12/08 01:22:30;;;;;;;3.40;3.03;;;3.10;99.90;;;;;;5070951;28;20181;-72
2023/12/08 01:24:56;;;;;;;4.83;3.70;;;3.00;99.90;;;;;;5070740;28;20850;-72
2023/12/08 01:27:22;;;;;;;4.33;3.93;;;2.90;99.90;;;;;;5070445;28;20209;-72
2023/12/08 01:29:47;;;;;;;6.77;3.80;;;2.90;99.90;;;;;;5070369;28;20194;-72
2023/12/08 01:32:13;;;;;;;5.03;3.87;;;2.80;99.90;;;;;;5070318;28;20276;-72
2023/12/08 01:34:38;;;;;;;4.13;3.73;;;2.80;99.90;;;;;;5068940;28;20196;-71
2023/12/08 01:37:04;;;;;;;4.70;3.00;;;2.80;99.90;;;;;;5070194;28;20213;-72
2023/12/08 01:39:30;;;;;;;4.20;3.80;;;2.90;99.90;;;;;;5069983;28;20214;-71
2023/12/08 01:41:55;;;;;;;2.97;2.57;;;3.00;99.90;;;;;;5070575;28;20234;-72
2023/12/08 01:44:21;;;;;;;2.87;2.67;;;3.00;99.90;;;;;;5069037;28;20183;-72
2023/12/08 01:46:46;;;;;;;3.30;2.97;;;3.20;99.90;;;;;;5052125;28;20205;-72
2023/12/08 01:49:14;;;;;;;5.37;3.57;;;3.30;99.90;;;;;;5070552;28;20256;-72
2023/12/08 01:51:40;;;;;;;4.38;3.33;;;3.30;99.90;;;;;;5070607;28;20234;-72
2023/12/08 01:54:06;;;;;;;3.53;3.17;;;3.40;99.90;;;;;;5068963;28;20614;-72
2023/12/08 01:56:32;;;;;;;3.20;2.90;;;3.40;99.90;;;;;;5070301;28;20219;-72
2023/12/08 01:58:58;;;;;;;3.67;2.50;;;3.50;99.90;;;;;;5070008;28;20307;-72
2023/12/08 02:01:25;;;;;;;3.47;3.17;;;3.60;99.90;;;;;;5070190;28;20419;-72
2023/12/08 02:03:51;;;;;;;3.10;2.80;;;3.60;99.90;;;;;;5068367;28;20414;-72
2023/12/08 02:06:20;;;;;;;3.80;3.13;;;3.60;99.90;;;;;;5069922;28;20696;-72
2023/12/08 02:08:49;;;;;;;4.00;3.55;;;3.70;99.90;;;;;;5069688;28;20450;-71
2023/12/08 02:11:16;;;;;;;5.97;3.57;;;3.70;99.90;;;;;;5068207;28;20198;-72
2023/12/08 02:13:42;;;;;;;4.50;3.37;;;3.70;99.90;;;;;;5069502;28;20437;-72
2023/12/08 02:16:17;;;;;;;4.30;3.20;;;3.60;99.90;;;;;;5069296;28;20790;-72
2023/12/08 02:18:44;;;;;;;4.50;3.35;;;3.60;99.90;;;;;;5067063;28;20468;-70
2023/12/08 02:21:10;;;;;;;3.77;3.43;;;3.60;99.90;;;;;;5069280;28;20284;-71
2023/12/08 02:23:36;;;;;;;3.93;3.03;;;3.60;99.90;;;;;;5067968;28;20452;-71
2023/12/08 02:26:04;;;;;;;4.20;3.73;;;3.60;99.90;;;;;;5069558;28;20504;-72
2023/12/08 02:28:29;;;;;;;6.40;3.80;;;3.50;99.90;;;;;;5069280;28;20240;-71
2023/12/08 02:30:57;;;;;;;4.03;3.47;;;3.50;99.90;;;;;;5068412;28;20930;-71
2023/12/08 02:33:31;;;;;;;4.17;3.23;;;3.50;99.90;;;;;;5069274;28;20179;-71
2023/12/08 02:36:02;;;;;;;4.78;4.05;;;3.50;99.90;;;;;;5069057;28;20438;-72
2023/12/08 02:38:28;;;;;;;4.27;3.87;;;3.50;99.90;;;;;;5067666;28;20213;-72
2023/12/08 02:40:56;;;;;;;5.90;3.73;;;3.50;99.90;;;;;;5069085;28;20421;-72
2023/12/08 02:43:22;;;;;;;3.83;3.30;;;3.50;99.90;;;;;;5069212;28;20413;-72
2023/12/08 02:45:47;;;;;;;4.50;3.57;;;3.50;99.90;;;;;;5069209;28;20437;-72
2023/12/08 02:48:13;;;;;;;4.40;3.40;;;3.50;99.90;;;;;;5069230;28;20957;-72
2023/12/08 02:50:41;;;;;;;3.97;3.40;;;3.50;99.90;;;;;;5067698;28;20727;-72
2023/12/08 02:53:06;;;;;;;4.53;3.63;;;3.50;99.90;;;;;;5068860;28;20210;-72
2023/12/08 02:55:32;;;;;;;14.73;5.20;;;3.60;99.90;;;;;;5067231;28;20226;-72
2023/12/08 02:57:58;;;;;;;9.80;7.40;;;3.50;99.90;;;;;;5068827;28;20728;-71
2023/12/08 03:00:23;;;;;;;14.73;8.53;;;3.30;99.90;;;;;;5067433;28;20551;-72
2023/12/08 03:02:49;;;;;;;12.93;7.47;;;3.20;99.90;;;;;;5067471;28;20260;-72
2023/12/08 03:05:14;;;;;;;9.53;7.30;;;3.00;99.90;;;;;;5068932;28;20188;-72
2023/12/08 03:07:40;;;;;;;12.60;7.23;;;2.90;99.90;;;;;;5068548;28;20718;-72
2023/12/08 03:10:06;;;;;;;9.50;6.90;;;2.70;99.90;;;;;;5067504;28;20244;-72
2023/12/08 03:12:32;;;;;;;9.82;7.40;;;2.60;99.90;;;;;;5067242;28;20551;-72
2023/12/08 03:14:57;;;;;;;11.00;8.17;;;2.50;99.90;;;;;;5067455;28;20292;-72
2023/12/08 03:17:23;;;;;;;11.97;7.97;;;2.40;99.90;;;;;;5068587;28;20199;-71
2023/12/08 03:19:48;;;;;;;12.23;7.60;;;2.30;99.90;;;;;;5068507;28;20254;-72
2023/12/08 03:22:14;;;;;;;10.33;7.77;;;2.30;99.90;;;;;;5066869;28;20549;-72
2023/12/08 03:24:40;;;;;;;10.27;7.20;;;2.30;99.90;;;;;;5067111;28;20186;-72
2023/12/08 03:27:06;;;;;;;12.83;8.37;;;2.20;99.90;;;;;;5066925;28;20924;-72
2023/12/08 03:29:31;;;;;;;11.70;7.87;;;2.20;99.90;;;;;;5067465;28;20195;-72
2023/12/08 03:31:57;;;;;;;14.40;8.37;;;2.20;99.90;;;;;;5068419;28;20419;-73
2023/12/08 03:34:22;;;;;;;11.13;7.80;;;2.20;99.90;;;;;;5068369;28;20196;-72
2023/12/08 03:36:48;;;;;;;12.80;7.90;;;2.20;99.90;;;;;;5068419;28;20213;-72
2023/12/08 03:39:13;;;;;;;12.70;8.50;;;2.20;99.90;;;;;;5068455;28;20209;-72
2023/12/08 03:41:39;;;;;;;11.30;7.80;;;2.20;99.90;;;;;;5068488;28;20924;-72
2023/12/08 03:44:04;;;;;;;11.00;7.73;;;2.20;99.90;;;;;;5068382;28;20243;-72
2023/12/08 03:46:30;;;;;;;11.23;7.57;;;2.20;99.90;;;;;;5066843;28;20562;-72
2023/12/08 03:48:56;;;;;;;10.60;7.07;;;2.10;99.90;;;;;;5050100;28;20192;-72
2023/12/08 03:51:21;;;;;;;8.90;7.30;;;2.10;99.90;;;;;;5068217;28;20273;-71
2023/12/08 03:53:47;;;;;;;10.47;7.90;;;2.20;99.90;;;;;;5068390;28;20193;-72
2023/12/08 03:56:12;;;;;;;11.13;7.40;;;2.10;99.90;;;;;;5068116;28;20224;-72
2023/12/08 03:58:38;;;;;;;9.00;7.23;;;2.10;99.90;;;;;;5068218;28;20192;-73
2023/12/08 04:01:04;;;;;;;11.40;6.63;;;2.10;99.90;;;;;;5050070;28;20226;-71
2023/12/08 04:03:29;;;;;;;8.57;6.13;;;2.10;99.90;;;;;;5068293;28;20192;-70
2023/12/08 04:05:55;;;;;;;12.53;7.10;;;2.10;99.90;;;;;;5067019;28;20549;-72
2023/12/08 04:08:21;;;;;;;10.30;7.47;;;2.20;99.90;;;;;;5066741;28;20188;-72
2023/12/08 04:10:47;;;;;;;9.83;6.77;;;2.20;99.90;;;;;;5066535;28;20565;-72
2023/12/08 04:13:12;;;;;;;11.23;7.40;;;2.10;99.90;;;;;;5068134;28;20185;-72
2023/12/08 04:15:38;;;;;;;10.47;6.73;;;2.10;99.90;;;;;;5066585;28;20430;-71
2023/12/08 04:18:05;;;;;;;8.90;6.60;;;2.10;99.90;;;;;;5068174;28;20184;-71
2023/12/08 04:20:31;;;;;;;10.07;6.40;;;2.10;99.90;;;;;;5067903;28;20462;-72
2023/12/08 04:22:57;;;;;;;10.18;6.70;;;2.20;99.90;;;;;;5066394;28;20444;-72
2023/12/08 04:25:22;;;;;;;10.00;7.37;;;2.10;99.90;;;;;;5067934;28;20570;-72
2023/12/08 04:27:48;;;;;;;9.10;6.70;;;2.20;99.90;;;;;;5068435;28;20227;-72
2023/12/08 04:30:14;;;;;;;7.63;5.70;;;2.10;99.90;;;;;;5067918;28;20188;-73
2023/12/08 04:32:39;;;;;;;13.20;6.20;;;2.10;99.90;;;;;;5066321;28;20670;-72
2023/12/08 04:35:05;;;;;;;10.63;7.27;;;2.10;99.90;;;;;;5067885;28;20552;-73
2023/12/08 04:37:31;;;;;;;15.20;7.75;;;2.00;99.90;;;;;;5049686;28;20342;-74
2023/12/08 04:39:57;;;;;;;8.37;6.30;;;1.80;99.90;;;;;;5066614;28;20320;-74
2023/12/08 04:42:22;;;;;;;9.97;7.37;;;1.80;99.90;;;;;;5053033;28;21000;-73
2023/12/08 04:44:48;;;;;;;13.50;6.53;;;1.80;99.90;;;;;;5071602;28;20185;-73
2023/12/08 04:47:13;;;;;;;11.33;6.23;;;1.80;99.90;;;;;;5071511;28;20199;-73
2023/12/08 04:49:39;;;;;;;7.90;5.40;;;1.80;99.90;;;;;;5069986;28;20662;-73
2023/12/08 04:52:05;;;;;;;5.47;4.87;;;1.90;99.90;;;;;;5071390;28;20190;-73
2023/12/08 04:54:30;;;;;;;3.77;3.30;;;2.00;99.90;;;;;;5070962;28;20694;-73
2023/12/08 04:56:56;;;;;;;3.63;3.13;;;2.40;99.90;;;;;;5052464;28;20769;-73
2023/12/08 04:59:22;;;;;;;3.53;3.13;;;2.90;99.90;;;;;;5070576;28;20200;-73
2023/12/08 05:01:51;;;;;;;3.30;2.10;;;3.30;99.90;;;;;;5069133;28;20543;-73
2023/12/08 05:04:18;;;;;;;2.63;2.38;;;3.50;99.90;;;;;;5070778;28;20185;-73
2023/12/08 05:06:44;;;;;;;4.38;3.30;;;4.10;99.90;;;;;;5070379;28;20208;-74
2023/12/08 05:09:13;;;;;;;3.53;2.77;;;4.40;99.90;;;;;;5069284;28;20191;-73
2023/12/08 05:11:38;;;;;;;3.95;2.25;;;4.40;99.90;;;;;;5068904;28;20806;-73
2023/12/08 05:14:04;;;;;;;2.80;2.50;;;4.70;99.90;;;;;;5070504;28;20193;-73
2023/12/08 05:16:30;;;;;;;3.27;2.73;;;4.70;99.90;;;;;;5070378;28;20201;-73
2023/12/08 05:18:55;;;;;;;3.30;2.30;;;4.70;99.90;;;;;;5070386;28;20287;-73
2023/12/08 05:21:21;;;;;;;2.53;2.20;;;4.60;99.90;;;;;;5068595;28;21108;-73
2023/12/08 05:23:47;;;;;;;3.70;2.53;;;4.60;99.90;;;;;;5068531;28;20208;-72
2023/12/08 05:26:12;;;;;;;3.00;2.77;;;4.60;99.90;;;;;;5069883;28;20285;-72
2023/12/08 05:28:38;;;;;;;3.87;2.93;;;4.60;99.90;;;;;;5068463;28;20195;-74
2023/12/08 05:31:04;;;;;;;3.67;2.73;;;4.80;99.90;;;;;;5069942;28;20195;-73
2023/12/08 05:33:30;;;;;;;3.80;3.05;;;4.80;99.90;;;;;;5070103;28;20181;-73
2023/12/08 05:35:56;;;;;;;3.90;3.47;;;4.90;99.90;;;;;;5070601;28;20732;-72
2023/12/08 05:38:22;;;;;;;5.20;3.70;;;4.80;99.90;;;;;;5070479;28;20715;-72
2023/12/08 05:40:48;;;;;;;3.73;3.30;;;4.80;99.90;;;;;;5070434;28;20467;-72
2023/12/08 05:43:13;;;;;;;4.43;3.03;;;4.80;99.90;;;;;;5069165;28;20422;-72
2023/12/08 05:45:39;;;;;;;4.17;3.30;;;4.80;99.90;;;;;;5068586;28;20179;-73
2023/12/08 05:48:05;;;;;;;4.70;3.67;;;4.80;99.90;;;;;;5068687;28;20683;-72
2023/12/08 05:50:31;;;;;;;3.20;2.93;;;4.90;99.90;;;;;;5070013;28;20187;-72
2023/12/08 05:52:56;;;;;;;4.03;3.20;;;4.90;99.90;;;;;;5068701;28;20428;-71
2023/12/08 05:55:22;;;;;;;4.90;3.10;;;5.00;99.90;;;;;;5069353;28;20268;-71
2023/12/08 05:57:48;;;;;;;5.90;3.53;;;4.90;99.90;;;;;;5069598;28;20832;-73
2023/12/08 06:00:17;;;;;;;8.80;3.90;;;5.00;99.90;;;;;;5067887;28;20515;-71
2023/12/08 06:02:43;;;;;;;4.00;3.10;;;5.00;99.90;;;;;;5068120;28;20191;-72
2023/12/08 06:05:10;;;;;;;4.50;3.83;;;5.00;99.90;;;;;;5067969;28;20436;-74
2023/12/08 06:07:36;;;;;;;3.93;3.00;;;5.00;99.90;;;;;;5069350;28;20444;-73
2023/12/08 06:10:04;;;;;;;4.00;3.20;;;5.00;99.90;;;;;;5069588;28;20424;-73
2023/12/08 06:12:30;;;;;;;3.60;2.33;;;5.00;99.90;;;;;;5069318;28;20205;-73
2023/12/08 06:14:59;;;;;;;2.30;1.90;;;5.30;99.90;;;;;;5069152;28;20922;-72
2023/12/08 06:17:26;;;;;;;1.70;1.60;;;5.50;99.90;;;;;;5068952;28;20565;-72
2023/12/08 06:19:51;;;;;;;1.70;1.60;;;5.80;99.90;;;;;;5069219;28;20488;-73
2023/12/08 06:22:17;;;;;;;2.30;2.10;;;5.90;99.90;;;;;;5069307;28;20935;-74
2023/12/08 06:24:42;;;;;;;2.10;1.67;;;6.00;99.90;;;;;;5069129;28;20175;-73
2023/12/08 06:27:11;;;;;;;2.40;1.40;;;6.20;99.90;;;;;;5067773;28;21075;-73
2023/12/08 06:29:37;;;;;;;2.60;1.70;;;6.30;99.90;;;;;;5069319;28;20222;-74
2023/12/08 06:32:03;;;;;;;4.20;2.83;;;6.30;99.90;;;;;;5067466;28;20479;-73
2023/12/08 06:34:28;;;;;;;3.30;2.60;;;6.30;99.90;;;;;;5068773;28;20304;-73
2023/12/08 06:36:54;;;;;;;4.37;2.50;;;6.20;99.90;;;;;;5069137;28;20498;-72
2023/12/08 06:39:20;;;;;;;2.90;2.13;;;6.00;99.90;;;;;;5068504;28;20219;-73
2023/12/08 06:41:45;;;;;;;1.80;1.70;;;6.10;99.90;;;;;;5068571;28;20186;-73
2023/12/08 06:44:14;;;;;;;1.60;1.50;;;6.00;99.90;;;;;;5068383;28;20416;-74
2023/12/08 06:46:40;;;;;;;1.67;1.40;;;6.00;99.90;;;;;;5050709;28;20206;-73
2023/12/08 06:49:05;;;;;;;1.57;1.47;;;6.10;99.90;;;;;;5066867;28;20432;-73
2023/12/08 06:51:37;;;;;;;1.10;1.00;;;6.10;99.90;;;;;;5068136;28;20191;-73
2023/12/08 06:54:04;;;;;;;1.20;1.10;;;6.10;99.90;;;;;;5068032;28;20219;-73
2023/12/08 06:56:30;;;;;;;1.60;1.23;;;6.20;99.90;;;;;;5067982;28;20532;-72
2023/12/08 06:58:56;;;;;;;1.07;0.97;;;6.30;99.90;;;;;;5067369;28;20452;-73
2023/12/08 07:01:22;;;;;;;1.20;1.10;;;6.40;99.90;;;;;;5066015;28;20425;-72
2023/12/08 07:03:48;;;;;;;1.37;1.27;;;6.40;99.90;;;;;;5067812;28;20406;-72
2023/12/08 07:06:14;;;;;;;3.03;1.27;;;6.40;99.90;;;;;;5067404;28;20814;-72
2023/12/08 07:08:40;;;;;;;1.93;1.43;;;6.40;99.90;;;;;;5067186;28;20456;-72
2023/12/08 07:11:05;;;;;;;1.10;1.03;;;6.30;99.90;;;;;;5067450;28;20179;-72
2023/12/08 07:13:31;;;;;;;1.27;1.17;;;6.30;99.90;;;;;;5067212;28;20265;-72
2023/12/08 07:15:57;;;;;;;1.00;0.90;;;6.20;99.90;;;;;;5067226;28;20303;-72
2023/12/08 07:18:22;;;;;;;1.27;0.93;;;6.30;99.90;;;;;;5067353;28;20258;-72
2023/12/08 07:20:48;;;;;;;1.57;0.80;;;6.20;99.90;;;;;;5067133;28;20428;-73
2023/12/08 07:23:13;;;;;;;1.23;1.13;;;6.10;99.90;;;;;;5065748;28;20229;-72
2023/12/08 07:25:39;;;;;;;1.07;0.97;;;6.20;99.90;;;;;;5066984;28;20179;-72
2023/12/08 07:28:04;;;;;;;1.40;1.30;;;6.20;99.90;;;;;;5065819;28;20560;-71
2023/12/08 07:30:30;;;;;;;3.00;1.47;;;6.20;99.90;;;;;;5065678;28;20672;-72
2023/12/08 07:32:56;;;;;;;1.40;1.30;;;6.30;99.90;;;;;;5067125;28;20719;-72
2023/12/08 07:35:22;;;;;;;1.57;1.37;;;6.30;99.90;;;;;;5067000;28;20179;-71
2023/12/08 07:37:49;;;;;;;1.47;1.37;;;6.20;99.90;;;;;;5066826;28;20439;-73
2023/12/08 07:40:15;;;;;;;1.50;1.33;;;6.20;99.90;;;;;;5067032;28;20276;-71
2023/12/08 07:42:41;;;;;;;1.57;1.47;;;6.20;99.90;;;;;;5066774;28;20531;-72
2023/12/08 07:45:08;;;;;;;1.40;1.30;;;6.20;99.90;;;;;;5067038;28;20413;-73
2023/12/08 07:47:34;;;;;;;1.43;1.33;;;6.20;99.90;;;;;;5065459;28;20449;-72
2023/12/08 07:50:00;;;;;;;1.70;1.60;;;6.20;99.90;;;;;;5066944;28;20421;-73
2023/12/08 07:52:26;;;;;;;1.47;1.37;;;6.30;99.90;;;;;;5066895;28;20427;-72
2023/12/08 07:54:51;;;;;;;2.03;1.40;;;6.30;99.90;;;;;;5066684;28;20194;-72
2023/12/08 07:57:18;;;;;;;1.90;1.47;;;6.30;99.90;;;;;;5066779;28;20493;-72
2023/12/08 07:59:44;;;;;;;1.30;1.20;;;6.30;99.90;;;;;;5066940;28;20206;-72
2023/12/08 08:02:10;;;;;;;1.53;1.40;;;6.30;99.90;;;;;;5065247;28;20417;-72
2023/12/08 08:04:35;;;;;;;1.43;1.33;;;6.30;99.90;;;;;;5066782;28;20882;-73
2023/12/08 08:07:01;;;;;;;1.30;1.20;;;6.30;99.90;;;;;;5066664;28;20203;-72
2023/12/08 08:09:27;;;;;;;2.10;1.47;;;6.30;99.90;;;;;;5066625;28;20192;-73
2023/12/08 08:11:52;;;;;;;3.57;1.80;;;6.30;99.90;;;;;;5066727;28;20195;-72
2023/12/08 08:14:20;;;;;;;1.50;1.40;;;6.30;99.90;;;;;;5066741;28;20705;-72
2023/12/08 08:16:47;;;;;;;1.63;1.53;;;6.40;99.90;;;;;;5068385;28;20915;-71
2023/12/08 08:19:12;;;;;;;4.70;4.30;;;6.40;99.90;;;;;;5070506;28;20552;-73
2023/12/08 08:21:38;;;;;;;3.73;3.37;;;6.40;99.90;;;;;;5070371;28;20504;-72
2023/12/08 08:24:04;;;;;;;1.57;1.47;;;6.40;99.90;;;;;;5070397;28;20187;-72
2023/12/08 08:26:29;;;;;;;1.40;1.30;;;6.40;99.90;;;;;;5070134;28;20692;-72
2023/12/08 08:28:55;;;;;;;1.20;1.10;;;6.50;99.90;;;;;;5070294;28;20421;-71
2023/12/08 08:31:21;;;;;;;1.40;1.30;;;6.50;99.90;;;;;;5070501;28;20237;-72
2023/12/08 08:33:47;;;;;;;1.40;1.00;;;6.50;99.90;;;;;;5070270;28;20202;-72
2023/12/08 08:36:12;;;;;;;2.57;1.40;;;6.60;99.90;;;;;;5068634;28;20514;-73
2023/12/08 08:38:38;;;;;;;1.50;1.20;;;6.60;99.90;;;;;;5070108;28;20600;-71
2023/12/08 08:41:04;;;;;;;1.20;1.10;;;6.60;99.90;;;;;;5068522;28;20209;-71
2023/12/08 08:43:30;;;;;;;0.90;0.80;;;6.60;99.90;;;;;;5070092;28;20421;-70
2023/12/08 08:45:56;;;;;;;1.60;0.60;;;6.70;99.90;;;;;;5068528;28;20203;-72
2023/12/08 08:48:21;;;;;;;1.13;1.03;;;6.70;99.90;;;;;;5070192;28;20293;-72
2023/12/08 08:50:48;;;;;;;0.97;0.87;;;6.70;99.90;;;;;;5070310;28;20746;-72
2023/12/08 08:53:16;;;;;;;1.13;0.97;;;6.80;99.90;;;;;;5070088;28;20182;-72
2023/12/08 08:55:42;;;;;;;1.13;1.03;;;6.80;99.90;;;;;;5069587;28;20943;-72
2023/12/08 08:58:07;;;;;;;1.43;1.07;;;6.80;99.90;;;;;;5070032;28;20421;-72
2023/12/08 09:00:34;;;;;;;1.07;0.80;;;6.80;99.90;;;;;;5051516;28;20477;-71
2023/12/08 09:03:01;;;;;;;1.10;0.80;;;6.80;99.90;;;;;;5069765;28;20180;-72
2023/12/08 09:05:27;;;;;;;0.93;0.80;;;6.80;99.90;;;;;;5069715;28;20416;-72
2023/12/08 09:07:53;;;;;;;0.90;0.77;;;6.90;99.90;;;;;;5069715;28;20425;-72
2023/12/08 09:10:19;;;;;;;0.93;0.77;;;6.90;99.90;;;;;;5069717;28;20418;-72
2023/12/08 09:12:44;;;;;;;1.10;0.70;;;6.90;99.90;;;;;;5068216;28;21095;-71
2023/12/08 09:15:11;;;;;;;0.80;0.70;;;6.90;99.90;;;;;;5069635;28;20258;-72
2023/12/08 09:17:37;;;;;;;1.00;0.90;;;6.90;99.90;;;;;;5051522;28;20199;-72
2023/12/08 09:20:07;;;;;;;0.93;0.83;;;6.90;99.90;;;;;;5051128;28;20469;-72
2023/12/08 09:22:33;;;;;;;1.20;0.87;;;6.90;99.90;;;;;;5069556;28;20179;-72
2023/12/08 09:24:59;;;;;;;0.80;0.57;;;6.80;99.90;;;;;;5067819;28;20444;-71
2023/12/08 09:27:24;;;;;;;2.00;0.80;;;6.80;99.90;;;;;;5067854;28;20446;-72
2023/12/08 09:29:50;;;;;;;1.13;0.80;;;6.80;99.90;;;;;;5069512;28;20262;-72
2023/12/08 09:32:15;;;;;;;0.80;0.80;;;6.70;99.90;;;;;;5051499;28;20201;-72
2023/12/08 09:34:41;;;;;;;0.80;0.70;;;6.70;99.90;;;;;;5069224;28;20524;-72
2023/12/08 09:37:07;;;;;;;0.80;0.60;;;6.70;99.90;;;;;;5050933;28;20256;-72
2023/12/08 09:39:32;;;;;;;1.37;0.80;;;6.70;99.90;;;;;;5069203;28;20272;-72
2023/12/08 09:42:04;;;;;;;1.20;1.10;;;6.60;99.90;;;;;;5068090;28;21087;-72
2023/12/08 09:44:32;;;;;;;0.83;0.60;;;6.60;99.90;;;;;;5069211;28;20175;-72
2023/12/08 09:47:06;;;;;;;0.77;0.60;;;6.60;99.90;;;;;;5069184;28;20784;-72
2023/12/08 09:49:44;;;;;;;1.00;0.70;;;6.60;99.90;;;;;;5069336;28;21291;-72
2023/12/08 09:52:16;;;;;;;1.03;0.93;;;6.60;99.90;;;;;;5069220;28;20420;-72
2023/12/08 09:54:43;;;;;;;1.23;0.97;;;6.60;99.90;;;;;;5069481;28;21092;-72
2023/12/08 09:57:09;;;;;;;1.87;0.93;;;6.60;99.90;;;;;;5067307;28;21059;-72
2023/12/08 09:59:38;;;;;;;1.27;0.97;;;6.60;99.90;;;;;;5068497;28;20564;-72
2023/12/08 10:02:04;;;;;;;2.60;1.00;;;6.50;99.90;;;;;;5068722;28;20801;-71
2023/12/08 10:04:30;;;;;;;1.90;1.47;;;6.50;99.90;;;;;;5066878;28;20942;-72
2023/12/08 10:06:58;;;;;;;1.00;0.90;;;6.50;99.90;;;;;;5068410;28;20439;-71
2023/12/08 10:09:26;;;;;;;1.27;0.70;;;6.50;99.90;;;;;;5068606;28;20194;-72
2023/12/08 10:11:52;;;;;;;1.40;0.90;;;6.50;99.90;;;;;;5068712;28;20452;-71
2023/12/08 10:14:19;;;;;;;1.70;0.90;;;6.50;99.90;;;;;;5068525;28;20914;-72
2023/12/08 10:16:46;;;;;;;2.00;1.30;;;6.50;99.90;;;;;;5068618;28;20195;-71
2023/12/08 10:19:12;;;;;;;1.47;0.93;;;6.50;99.90;;;;;;5068352;28;20522;-72
2023/12/08 10:21:38;;;;;;;1.00;0.90;;;6.50;99.90;;;;;;5068611;28;20417;-72
2023/12/08 10:24:05;;;;;;;1.30;0.70;;;6.50;99.90;;;;;;5068582;28;20413;-72
2023/12/08 10:26:32;;;;;;;1.10;0.60;;;6.50;99.90;;;;;;5066606;28;20445;-72
2023/12/08 10:28:58;;;;;;;1.00;0.90;;;6.50;99.90;;;;;;5068280;28;20418;-73
2023/12/08 10:31:26;;;;;;;0.90;0.80;;;6.50;99.90;;;;;;5068630;28;20414;-71
2023/12/08 10:33:53;;;;;;;0.70;0.50;;;6.50;99.90;;;;;;5068248;28;20428;-72
2023/12/08 10:36:19;;;;;;;0.90;0.77;;;6.60;99.90;;;;;;5068349;28;20437;-72
2023/12/08 10:38:46;;;;;;;1.00;0.80;;;6.60;99.90;;;;;;5067840;28;20421;-72
2023/12/08 10:41:13;;;;;;;1.77;0.90;;;6.60;99.90;;;;;;5068424;28;20262;-72
2023/12/08 10:43:39;;;;;;;1.00;0.87;;;6.60;99.90;;;;;;5068523;28;20606;-71
2023/12/08 10:46:06;;;;;;;1.10;0.70;;;6.60;99.90;;;;;;5068145;28;20441;-71
2023/12/08 10:48:33;;;;;;;1.30;0.60;;;6.60;99.90;;;;;;5066246;28;20859;-72
2023/12/08 10:50:59;;;;;;;1.03;0.80;;;6.60;99.90;;;;;;5066664;28;20551;-72
2023/12/08 10:53:26;;;;;;;1.00;0.70;;;6.60;99.90;;;;;;5068313;28;20872;-72
2023/12/08 10:56:01;;;;;;;1.00;0.70;;;6.60;99.90;;;;;;5066910;28;20465;-71
2023/12/08 10:58:28;;;;;;;0.80;0.80;;;6.60;99.90;;;;;;5068492;28;20819;-71
2023/12/08 11:00:55;;;;;;;1.33;0.80;;;6.60;99.90;;;;;;5068243;28;20556;-72
2023/12/08 11:03:23;;;;;;;1.20;0.70;;;6.60;99.90;;;;;;5068345;28;20414;-72
2023/12/08 11:06:21;;;;;;;1.00;0.80;;;6.60;99.90;;;;;;5068039;28;20429;-73
2023/12/08 11:08:54;;;;;;;1.93;0.90;;;6.60;99.90;;;;;;5050964;28;20422;-71
2023/12/08 11:11:21;;;;;;;5.87;1.63;;;6.50;99.90;;;;;;5068212;28;20432;-73
2023/12/08 11:13:50;;;;;;;0.90;0.80;;;6.50;99.90;;;;;;5066419;28;20453;-73
2023/12/08 11:16:47;;;;;;;0.83;0.80;;;6.50;99.90;;;;;;5066329;28;20441;-71
2023/12/08 11:19:13;;;;;;;1.20;1.03;;;6.50;99.90;;;;;;5067858;28;20468;-72
2023/12/08 11:21:39;;;;;;;1.33;0.73;;;6.50;99.90;;;;;;5066624;28;20429;-73
2023/12/08 11:24:07;;;;;;;1.00;0.83;;;6.40;99.90;;;;;;5068031;28;20425;-72
2023/12/08 11:26:48;;;;;;;1.00;0.90;;;6.40;99.90;;;;;;5066346;28;20977;-73
2023/12/08 11:29:36;;;;;;;1.13;1.03;;;6.40;99.90;;;;;;5068138;28;20530;-73
2023/12/08 11:32:38;;;;;;;1.13;1.03;;;6.40;99.90;;;;;;5068120;28;20474;-73
2023/12/08 11:35:08;;;;;;;2.60;1.10;;;6.40;99.90;;;;;;5068101;28;20411;-72
2023/12/08 11:37:34;;;;;;;1.67;1.37;;;6.30;99.90;;;;;;5066335;28;20434;-73
2023/12/08 11:40:01;;;;;;;1.50;1.40;;;6.50;99.90;;;;;;5067873;28;20487;-73
2023/12/08 11:42:27;;;;;;;1.40;0.93;;;6.50;99.90;;;;;;5066733;28;20665;-73
2023/12/08 11:44:56;;;;;;;1.93;1.60;;;6.50;99.90;;;;;;5067798;28;20529;-73
2023/12/08 11:47:25;;;;;;;1.07;0.97;;;6.50;99.90;;;;;;5067818;28;20851;-73
2023/12/08 11:49:53;;;;;;;1.03;0.93;;;6.50;99.90;;;;;;5067723;28;20421;-71
2023/12/08 11:52:20;;;;;;;1.20;1.10;;;6.40;99.90;;;;;;5071976;28;20512;-72
2023/12/08 11:55:24;;;;;;;2.00;1.00;;;6.50;99.90;;;;;;5071746;28;20545;-72
2023/12/08 11:58:01;;;;;;;1.60;1.00;;;6.50;99.90;;;;;;5070117;28;20981;-71
2023/12/08 12:00:28;;;;;;;1.60;1.50;;;6.50;99.90;;;;;;5070270;28;21056;-74
2023/12/08 12:02:55;;;;;;;1.50;1.33;;;6.40;99.90;;;;;;5071727;28;20474;-73
2023/12/08 12:05:21;;;;;;;1.20;1.10;;;6.50;99.90;;;;;;5070029;28;20409;-72
2023/12/08 12:07:51;;;;;;;1.53;1.43;;;6.50;99.90;;;;;;5071379;28;20451;-71
2023/12/08 12:10:21;;;;;;;6.67;3.70;;;6.60;99.90;;;;;;5071557;28;20179;-73
2023/12/08 12:13:09;;;;;;;1.90;1.37;;;6.50;99.90;;;;;;5071535;28;20906;-72
2023/12/08 12:15:37;;;;;;;1.77;1.30;;;6.50;99.90;;;;;;5071414;28;20420;-72
2023/12/08 12:18:04;;;;;;;1.57;1.47;;;6.50;99.90;;;;;;5071523;28;20409;-72
2023/12/08 12:20:34;;;;;;;1.43;1.27;;;6.50;99.90;;;;;;5069862;28;20469;-72
2023/12/08 12:23:00;;;;;;;1.40;1.30;;;6.50;99.90;;;;;;5071523;28;20794;-73
2023/12/08 12:25:26;;;;;;;1.60;1.50;;;6.50;99.90;;;;;;5071314;28;20422;-73
2023/12/08 12:27:53;;;;;;;1.50;1.40;;;6.40;99.90;;;;;;5071373;28;20651;-73
2023/12/08 12:30:20;;;;;;;1.77;1.63;;;6.40;99.90;;;;;;5071335;28;20755;-72
2023/12/08 12:32:47;;;;;;;1.57;1.47;;;6.30;99.90;;;;;;5052988;28;20570;-73
2023/12/08 12:35:13;;;;;;;1.90;1.77;;;6.40;99.90;;;;;;5071230;28;20427;-72
2023/12/08 12:37:40;;;;;;;2.00;1.80;;;6.40;99.90;;;;;;5070959;28;20437;-71
2023/12/08 12:40:10;;;;;;;1.73;1.63;;;6.40;99.90;;;;;;5070923;28;20465;-73
2023/12/08 12:42:43;;;;;;;2.00;1.83;;;6.40;99.90;;;;;;5070909;28;20526;-73
2023/12/08 12:45:10;;;;;;;1.80;1.20;;;6.30;99.90;;;;;;5069389;28;20425;-72
2023/12/08 12:47:36;;;;;;;3.37;1.60;;;6.40;99.90;;;;;;5070718;28;20951;-72
2023/12/08 12:50:07;;;;;;;1.70;1.60;;;6.30;99.90;;;;;;5070350;28;20424;-72
2023/12/08 12:52:36;;;;;;;1.70;1.60;;;6.30;99.90;;;;;;5069359;28;20187;-72
2023/12/08 12:55:04;;;;;;;1.30;1.20;;;6.40;99.90;;;;;;5070210;28;21298;-72